Sedlec, Czech Republic

1:59 PM CET on February 23, 2017 (GMT +0100)
WS-1080 in Sudice. | | Change Station

Elev 1381 ft 49.18 °N, 16.24 °E | Updated 1 minute ago

Overcast
Overcast
54.3 °F
Feels Like 54.3 °F
N
4.5
Wind Variable Wind from South
Gusts 6.9 mph

Today
High -- | Low -- °F
--% Chance of Precip.
Yesterday
High -- | Low -- °F
Precip. -- in
Pressure 29.62 in
Visibility 6.2 miles
Clouds Mostly Cloudy 3300 ft
Dew Point 26 °F
Humidity 33%
Rainfall 0.00 in
Snow Depth Not available.
6:49 AM 5:28 PM
Waning Crescent, 10% visible
METAR LKTB 231230Z 20008KT 9999 BKN033 12/07 Q1003 NOSIG
Pressure 29.62 in
Visibility 6.2 miles
Clouds Mostly Cloudy 3300 ft
Dew Point 26 °F
Humidity 33%
Rainfall 0.00 in
Snow Depth Not available.
6:49 AM 5:28 PM
Waning Crescent, 10% visible
METAR LKTB 231230Z 20008KT 9999 BKN033 12/07 Q1003 NOSIG

Get Your Daily Forecast Email!

Thanks for signing up!

Be on the lookout for a verification email in your inbox.

You'll start receiving the daily forecast at 8 AM.

×

10-Day Weather Forecast

×

Almanac

Astronomy

Feb. 23, 2017 Rise Set
Actual Time
Civil Twilight
Nautical Twilight
Astronomical Twilight
Moon
Length of Visible Light
Length of Day
Tomorrow will be .
, % of the Moon is Illuminated

Today's Extremes

Country Highs Country Lows

Community

WunderPhotos

Upload Photos

1,962,540 photos uploaded!

WunderBlog® & News

Nearby

Air Quality

  Air Quality AQ Index Pollutant
Not available.

Snow Depth

Station Depth Elevation

Earthquake Activity

City Distance Mag. Time & Date
Minimum magnitude displayed is 2.5.

Coastal Water Temperatures

Place Temperature

Stations

Nearby Weather Stations

Station Location Temp. Windchill Dew Point Humidity Wind Precip. Elev Updated Type